sensor_id;sensor_type;location;lat;lon;timestamp;temperature;humidity
13976;DHT22;7062;49.792;9.946;2023-05-16T00:01:49;15.40;99.90
13976;DHT22;7062;49.792;9.946;2023-05-16T00:04:14;15.30;99.90
13976;DHT22;7062;49.792;9.946;2023-05-16T00:06:40;15.40;99.90
13976;DHT22;7062;49.792;9.946;2023-05-16T00:09:06;15.30;99.90
13976;DHT22;7062;49.792;9.946;2023-05-16T00:11:31;15.20;99.90
13976;DHT22;7062;49.792;9.946;2023-05-16T00:13:57;15.30;99.90
13976;DHT22;7062;49.792;9.946;2023-05-16T00:16:23;15.40;99.90
13976;DHT22;7062;49.792;9.946;2023-05-16T00:18:50;15.40;99.90
13976;DHT22;7062;49.792;9.946;2023-05-16T00:21:17;15.30;99.90
13976;DHT22;7062;49.792;9.946;2023-05-16T00:23:42;15.40;99.90
13976;DHT22;7062;49.792;9.946;2023-05-16T00:26:08;15.20;99.90
13976;DHT22;7062;49.792;9.946;2023-05-16T00:28:34;15.20;99.90
13976;DHT22;7062;49.792;9.946;2023-05-16T00:31:00;15.20;99.90
13976;DHT22;7062;49.792;9.946;2023-05-16T00:33:26;15.20;99.90
13976;DHT22;7062;49.792;9.946;2023-05-16T00:35:51;15.10;99.90
13976;DHT22;7062;49.792;9.946;2023-05-16T00:38:18;15.10;99.90
13976;DHT22;7062;49.792;9.946;2023-05-16T00:40:45;15.20;99.90
13976;DHT22;7062;49.792;9.946;2023-05-16T00:43:11;15.10;99.90
13976;DHT22;7062;49.792;9.946;2023-05-16T00:45:37;15.30;99.90
13976;DHT22;7062;49.792;9.946;2023-05-16T00:48:02;15.00;99.90
13976;DHT22;7062;49.792;9.946;2023-05-16T00:50:28;15.00;99.90
13976;DHT22;7062;49.792;9.946;2023-05-16T00:52:54;15.00;99.90
13976;DHT22;7062;49.792;9.946;2023-05-16T00:55:20;14.90;99.90
13976;DHT22;7062;49.792;9.946;2023-05-16T00:57:46;14.80;99.90
13976;DHT22;7062;49.792;9.946;2023-05-16T01:00:13;14.70;99.90
13976;DHT22;7062;49.792;9.946;2023-05-16T01:02:42;14.60;99.90
13976;DHT22;7062;49.792;9.946;2023-05-16T01:05:08;14.50;99.90
13976;DHT22;7062;49.792;9.946;2023-05-16T01:07:34;14.60;99.90
13976;DHT22;7062;49.792;9.946;2023-05-16T01:10:02;14.60;99.90
13976;DHT22;7062;49.792;9.946;2023-05-16T01:15:14;14.50;99.90
13976;DHT22;7062;49.792;9.946;2023-05-16T01:18:33;14.60;99.90
13976;DHT22;7062;49.792;9.946;2023-05-16T01:21:02;14.60;99.90
13976;DHT22;7062;49.792;9.946;2023-05-16T01:23:50;14.60;99.90
13976;DHT22;7062;49.792;9.946;2023-05-16T01:26:27;14.70;99.90
13976;DHT22;7062;49.792;9.946;2023-05-16T01:28:53;14.60;99.90
13976;DHT22;7062;49.792;9.946;2023-05-16T01:31:20;14.70;99.90
13976;DHT22;7062;49.792;9.946;2023-05-16T01:33:46;14.70;99.90
13976;DHT22;7062;49.792;9.946;2023-05-16T01:44:22;14.70;99.90
13976;DHT22;7062;49.792;9.946;2023-05-16T01:46:54;14.70;99.90
13976;DHT22;7062;49.792;9.946;2023-05-16T01:52:00;14.60;99.90
13976;DHT22;7062;49.792;9.946;2023-05-16T01:54:30;14.50;99.90
13976;DHT22;7062;49.792;9.946;2023-05-16T01:56:56;14.40;99.90
13976;DHT22;7062;49.792;9.946;2023-05-16T01:59:24;14.40;99.90
13976;DHT22;7062;49.792;9.946;2023-05-16T02:01:53;14.50;99.90
13976;DHT22;7062;49.792;9.946;2023-05-16T02:04:20;14.60;99.90
13976;DHT22;7062;49.792;9.946;2023-05-16T02:06:45;14.70;99.90
13976;DHT22;7062;49.792;9.946;2023-05-16T02:09:11;14.80;99.90
13976;DHT22;7062;49.792;9.946;2023-05-16T02:11:36;14.90;99.90
13976;DHT22;7062;49.792;9.946;2023-05-16T02:14:02;15.00;99.90
13976;DHT22;7062;49.792;9.946;2023-05-16T02:16:29;15.00;99.90
13976;DHT22;7062;49.792;9.946;2023-05-16T02:18:55;15.00;99.90
13976;DHT22;7062;49.792;9.946;2023-05-16T02:21:21;15.10;99.90
13976;DHT22;7062;49.792;9.946;2023-05-16T02:23:47;15.00;99.90
13976;DHT22;7062;49.792;9.946;2023-05-16T02:26:12;15.00;99.90
13976;DHT22;7062;49.792;9.946;2023-05-16T02:28:38;14.90;99.90
13976;DHT22;7062;49.792;9.946;2023-05-16T02:31:04;14.90;99.90
13976;DHT22;7062;49.792;9.946;2023-05-16T02:33:29;14.90;99.90
13976;DHT22;7062;49.792;9.946;2023-05-16T02:35:55;14.90;99.90
13976;DHT22;7062;49.792;9.946;2023-05-16T02:38:21;14.90;99.90
13976;DHT22;7062;49.792;9.946;2023-05-16T02:40:47;14.60;99.90
13976;DHT22;7062;49.792;9.946;2023-05-16T02:43:12;14.50;99.90
13976;DHT22;7062;49.792;9.946;2023-05-16T02:45:38;14.50;99.90
13976;DHT22;7062;49.792;9.946;2023-05-16T02:48:04;14.60;99.90
13976;DHT22;7062;49.792;9.946;2023-05-16T02:50:30;14.60;99.90
13976;DHT22;7062;49.792;9.946;2023-05-16T02:52:56;14.70;99.90
13976;DHT22;7062;49.792;9.946;2023-05-16T02:55:24;14.60;99.90
13976;DHT22;7062;49.792;9.946;2023-05-16T02:57:50;14.40;99.90
13976;DHT22;7062;49.792;9.946;2023-05-16T03:00:16;14.30;99.90
13976;DHT22;7062;49.792;9.946;2023-05-16T03:02:43;14.20;99.90
13976;DHT22;7062;49.792;9.946;2023-05-16T03:05:09;14.10;99.90
13976;DHT22;7062;49.792;9.946;2023-05-16T03:07:36;14.20;99.90
13976;DHT22;7062;49.792;9.946;2023-05-16T03:10:02;14.20;99.90
13976;DHT22;7062;49.792;9.946;2023-05-16T03:12:28;14.30;99.90
13976;DHT22;7062;49.792;9.946;2023-05-16T03:14:54;14.40;99.90
13976;DHT22;7062;49.792;9.946;2023-05-16T03:17:19;14.50;99.90
13976;DHT22;7062;49.792;9.946;2023-05-16T03:19:45;14.50;99.90
13976;DHT22;7062;49.792;9.946;2023-05-16T03:22:11;14.40;99.90
13976;DHT22;7062;49.792;9.946;2023-05-16T03:24:36;14.30;99.90
13976;DHT22;7062;49.792;9.946;2023-05-16T03:27:02;14.30;99.90
13976;DHT22;7062;49.792;9.946;2023-05-16T03:29:29;14.30;99.90
13976;DHT22;7062;49.792;9.946;2023-05-16T03:31:55;14.30;99.90
13976;DHT22;7062;49.792;9.946;2023-05-16T03:34:21;14.20;99.90
13976;DHT22;7062;49.792;9.946;2023-05-16T03:36:48;14.10;99.90
13976;DHT22;7062;49.792;9.946;2023-05-16T03:39:14;14.10;99.90
13976;DHT22;7062;49.792;9.946;2023-05-16T03:41:40;14.00;99.90
13976;DHT22;7062;49.792;9.946;2023-05-16T03:44:06;13.90;99.90
13976;DHT22;7062;49.792;9.946;2023-05-16T03:46:31;13.90;99.90
13976;DHT22;7062;49.792;9.946;2023-05-16T03:48:57;14.00;99.90
13976;DHT22;7062;49.792;9.946;2023-05-16T03:51:23;14.00;99.90
13976;DHT22;7062;49.792;9.946;2023-05-16T03:53:48;14.10;99.90
13976;DHT22;7062;49.792;9.946;2023-05-16T03:56:14;14.10;99.90
13976;DHT22;7062;49.792;9.946;2023-05-16T03:58:40;14.10;99.90
13976;DHT22;7062;49.792;9.946;2023-05-16T04:01:05;14.10;99.90
13976;DHT22;7062;49.792;9.946;2023-05-16T04:03:31;14.10;99.90
13976;DHT22;7062;49.792;9.946;2023-05-16T04:05:57;14.20;99.90
13976;DHT22;7062;49.792;9.946;2023-05-16T04:08:23;14.20;99.90
13976;DHT22;7062;49.792;9.946;2023-05-16T04:10:50;14.30;99.90
13976;DHT22;7062;49.792;9.946;2023-05-16T04:13:16;14.30;99.90
13976;DHT22;7062;49.792;9.946;2023-05-16T04:15:41;14.30;99.90
13976;DHT22;7062;49.792;9.946;2023-05-16T04:18:08;14.40;99.90
13976;DHT22;7062;49.792;9.946;2023-05-16T04:20:34;14.30;99.90
13976;DHT22;7062;49.792;9.946;2023-05-16T04:23:00;14.20;99.90
13976;DHT22;7062;49.792;9.946;2023-05-16T04:25:26;14.20;99.90
13976;DHT22;7062;49.792;9.946;2023-05-16T04:27:52;14.10;99.90
13976;DHT22;7062;49.792;9.946;2023-05-16T04:30:18;14.10;99.90
13976;DHT22;7062;49.792;9.946;2023-05-16T04:32:43;14.10;99.90
13976;DHT22;7062;49.792;9.946;2023-05-16T04:35:09;14.10;99.90
13976;DHT22;7062;49.792;9.946;2023-05-16T04:37:35;14.00;99.90
13976;DHT22;7062;49.792;9.946;2023-05-16T04:40:02;14.10;99.90
13976;DHT22;7062;49.792;9.946;2023-05-16T04:42:28;14.00;99.90
13976;DHT22;7062;49.792;9.946;2023-05-16T04:44:53;14.00;99.90
13976;DHT22;7062;49.792;9.946;2023-05-16T04:47:20;14.10;99.90
13976;DHT22;7062;49.792;9.946;2023-05-16T04:49:46;14.20;99.90
13976;DHT22;7062;49.792;9.946;2023-05-16T04:52:11;14.30;99.90
13976;DHT22;7062;49.792;9.946;2023-05-16T04:54:37;14.30;99.90
13976;DHT22;7062;49.792;9.946;2023-05-16T04:57:04;14.30;99.90
13976;DHT22;7062;49.792;9.946;2023-05-16T04:59:30;14.10;99.90
13976;DHT22;7062;49.792;9.946;2023-05-16T05:01:55;14.10;99.90
13976;DHT22;7062;49.792;9.946;2023-05-16T05:04:21;14.00;99.90
13976;DHT22;7062;49.792;9.946;2023-05-16T05:06:47;13.90;99.90
13976;DHT22;7062;49.792;9.946;2023-05-16T05:09:12;13.70;99.90
13976;DHT22;7062;49.792;9.946;2023-05-16T05:11:38;13.60;99.90
13976;DHT22;7062;49.792;9.946;2023-05-16T05:14:04;13.60;99.90
13976;DHT22;7062;49.792;9.946;2023-05-16T05:16:29;14.50;99.90
13976;DHT22;7062;49.792;9.946;2023-05-16T05:18:55;13.70;99.90
13976;DHT22;7062;49.792;9.946;2023-05-16T05:21:21;13.60;99.90
13976;DHT22;7062;49.792;9.946;2023-05-16T05:23:48;13.60;99.90
13976;DHT22;7062;49.792;9.946;2023-05-16T05:26:14;13.70;99.90
13976;DHT22;7062;49.792;9.946;2023-05-16T05:28:39;13.80;99.90
13976;DHT22;7062;49.792;9.946;2023-05-16T05:31:05;13.70;99.90
13976;DHT22;7062;49.792;9.946;2023-05-16T05:33:32;13.60;99.90
13976;DHT22;7062;49.792;9.946;2023-05-16T05:35:58;13.70;99.90
13976;DHT22;7062;49.792;9.946;2023-05-16T05:38:24;13.70;99.90
13976;DHT22;7062;49.792;9.946;2023-05-16T05:40:49;13.80;99.90
13976;DHT22;7062;49.792;9.946;2023-05-16T05:43:15;13.90;99.90
13976;DHT22;7062;49.792;9.946;2023-05-16T05:45:41;14.00;99.90
13976;DHT22;7062;49.792;9.946;2023-05-16T05:48:07;14.00;99.90
13976;DHT22;7062;49.792;9.946;2023-05-16T05:50:33;13.90;99.90
13976;DHT22;7062;49.792;9.946;2023-05-16T05:52:59;13.90;99.90
13976;DHT22;7062;49.792;9.946;2023-05-16T05:55:24;13.70;99.90
13976;DHT22;7062;49.792;9.946;2023-05-16T05:57:50;13.60;99.90
13976;DHT22;7062;49.792;9.946;2023-05-16T06:00:16;13.50;99.90
13976;DHT22;7062;49.792;9.946;2023-05-16T06:02:42;13.50;99.90
13976;DHT22;7062;49.792;9.946;2023-05-16T06:05:08;13.50;99.90
13976;DHT22;7062;49.792;9.946;2023-05-16T06:07:34;13.60;99.90
13976;DHT22;7062;49.792;9.946;2023-05-16T06:09:59;13.60;99.90
13976;DHT22;7062;49.792;9.946;2023-05-16T06:12:29;13.60;99.90
13976;DHT22;7062;49.792;9.946;2023-05-16T06:14:55;13.60;99.90
13976;DHT22;7062;49.792;9.946;2023-05-16T06:17:21;13.70;99.90
13976;DHT22;7062;49.792;9.946;2023-05-16T06:19:47;13.70;99.90
13976;DHT22;7062;49.792;9.946;2023-05-16T06:22:12;13.60;99.90
13976;DHT22;7062;49.792;9.946;2023-05-16T06:24:39;13.70;99.90
13976;DHT22;7062;49.792;9.946;2023-05-16T06:27:05;13.60;99.90
13976;DHT22;7062;49.792;9.946;2023-05-16T06:29:30;13.60;99.90
13976;DHT22;7062;49.792;9.946;2023-05-16T06:31:56;13.50;99.90
13976;DHT22;7062;49.792;9.946;2023-05-16T06:34:21;13.70;99.90
13976;DHT22;7062;49.792;9.946;2023-05-16T06:36:52;13.70;99.90
13976;DHT22;7062;49.792;9.946;2023-05-16T06:39:18;13.80;99.90
13976;DHT22;7062;49.792;9.946;2023-05-16T06:41:44;13.80;99.90
13976;DHT22;7062;49.792;9.946;2023-05-16T06:44:10;13.80;99.90
13976;DHT22;7062;49.792;9.946;2023-05-16T06:46:36;13.80;99.90
13976;DHT22;7062;49.792;9.946;2023-05-16T06:49:03;13.70;99.90
13976;DHT22;7062;49.792;9.946;2023-05-16T06:51:29;13.50;99.90
13976;DHT22;7062;49.792;9.946;2023-05-16T06:53:56;13.60;99.90
13976;DHT22;7062;49.792;9.946;2023-05-16T06:56:21;13.70;99.90
13976;DHT22;7062;49.792;9.946;2023-05-16T06:58:48;13.50;99.90
13976;DHT22;7062;49.792;9.946;2023-05-16T07:01:14;13.30;99.90
13976;DHT22;7062;49.792;9.946;2023-05-16T07:03:40;13.30;99.90
13976;DHT22;7062;49.792;9.946;2023-05-16T07:06:05;13.30;99.90
13976;DHT22;7062;49.792;9.946;2023-05-16T07:08:31;13.40;99.90
13976;DHT22;7062;49.792;9.946;2023-05-16T07:10:57;13.50;99.90
13976;DHT22;7062;49.792;9.946;2023-05-16T07:13:23;13.50;99.90
13976;DHT22;7062;49.792;9.946;2023-05-16T07:15:49;13.50;99.90
13976;DHT22;7062;49.792;9.946;2023-05-16T07:18:14;13.40;99.90
13976;DHT22;7062;49.792;9.946;2023-05-16T07:20:40;13.50;99.90
13976;DHT22;7062;49.792;9.946;2023-05-16T07:23:06;13.50;99.90
13976;DHT22;7062;49.792;9.946;2023-05-16T07:25:32;13.70;99.90
13976;DHT22;7062;49.792;9.946;2023-05-16T07:27:57;13.80;99.90
13976;DHT22;7062;49.792;9.946;2023-05-16T07:30:24;14.00;99.90
13976;DHT22;7062;49.792;9.946;2023-05-16T07:32:49;14.00;99.90
13976;DHT22;7062;49.792;9.946;2023-05-16T07:35:15;13.90;99.90
13976;DHT22;7062;49.792;9.946;2023-05-16T07:37:41;13.90;99.90
13976;DHT22;7062;49.792;9.946;2023-05-16T07:40:09;13.90;99.90
13976;DHT22;7062;49.792;9.946;2023-05-16T07:42:34;14.00;99.90
13976;DHT22;7062;49.792;9.946;2023-05-16T07:45:00;14.10;99.90
13976;DHT22;7062;49.792;9.946;2023-05-16T07:47:26;13.90;99.90
13976;DHT22;7062;49.792;9.946;2023-05-16T07:49:52;14.00;99.90
13976;DHT22;7062;49.792;9.946;2023-05-16T07:52:17;14.10;99.90
13976;DHT22;7062;49.792;9.946;2023-05-16T07:54:45;14.30;99.90
13976;DHT22;7062;49.792;9.946;2023-05-16T07:57:12;14.40;99.90
13976;DHT22;7062;49.792;9.946;2023-05-16T07:59:38;14.40;99.90
13976;DHT22;7062;49.792;9.946;2023-05-16T08:02:03;14.30;99.90
13976;DHT22;7062;49.792;9.946;2023-05-16T08:04:29;14.20;99.90
13976;DHT22;7062;49.792;9.946;2023-05-16T08:06:55;14.30;99.90
13976;DHT22;7062;49.792;9.946;2023-05-16T08:09:20;14.60;99.90
13976;DHT22;7062;49.792;9.946;2023-05-16T08:11:46;14.60;99.90
13976;DHT22;7062;49.792;9.946;2023-05-16T08:14:12;14.80;99.90
13976;DHT22;7062;49.792;9.946;2023-05-16T08:16:37;15.00;99.90
13976;DHT22;7062;49.792;9.946;2023-05-16T08:19:03;15.10;99.90
13976;DHT22;7062;49.792;9.946;2023-05-16T08:21:28;15.30;99.90
13976;DHT22;7062;49.792;9.946;2023-05-16T08:23:56;15.40;99.90
13976;DHT22;7062;49.792;9.946;2023-05-16T08:26:21;15.60;99.90
13976;DHT22;7062;49.792;9.946;2023-05-16T08:28:47;15.80;99.90
13976;DHT22;7062;49.792;9.946;2023-05-16T08:31:13;15.80;99.90
13976;DHT22;7062;49.792;9.946;2023-05-16T08:33:39;15.80;99.90
13976;DHT22;7062;49.792;9.946;2023-05-16T08:36:05;15.90;99.90
13976;DHT22;7062;49.792;9.946;2023-05-16T08:38:31;15.80;99.90
13976;DHT22;7062;49.792;9.946;2023-05-16T08:40:56;15.80;99.90
13976;DHT22;7062;49.792;9.946;2023-05-16T08:43:22;15.70;99.90
13976;DHT22;7062;49.792;9.946;2023-05-16T08:45:48;15.80;99.90
13976;DHT22;7062;49.792;9.946;2023-05-16T08:48:14;15.90;99.90
13976;DHT22;7062;49.792;9.946;2023-05-16T08:50:41;16.30;99.90
13976;DHT22;7062;49.792;9.946;2023-05-16T08:53:11;16.50;99.90
13976;DHT22;7062;49.792;9.946;2023-05-16T08:55:39;16.50;99.90
13976;DHT22;7062;49.792;9.946;2023-05-16T08:58:05;16.40;99.90
13976;DHT22;7062;49.792;9.946;2023-05-16T09:00:31;16.20;99.90
13976;DHT22;7062;49.792;9.946;2023-05-16T09:02:57;16.10;99.90
13976;DHT22;7062;49.792;9.946;2023-05-16T09:05:23;15.90;99.90
13976;DHT22;7062;49.792;9.946;2023-05-16T09:07:50;15.80;99.90
13976;DHT22;7062;49.792;9.946;2023-05-16T09:10:15;15.60;99.90
13976;DHT22;7062;49.792;9.946;2023-05-16T09:12:41;15.60;99.90
13976;DHT22;7062;49.792;9.946;2023-05-16T09:15:08;15.50;99.90
13976;DHT22;7062;49.792;9.946;2023-05-16T09:17:36;15.60;99.90
13976;DHT22;7062;49.792;9.946;2023-05-16T09:20:09;15.60;99.90
13976;DHT22;7062;49.792;9.946;2023-05-16T09:22:37;15.60;99.90
13976;DHT22;7062;49.792;9.946;2023-05-16T09:25:03;15.60;99.90
13976;DHT22;7062;49.792;9.946;2023-05-16T09:27:30;15.60;99.90
13976;DHT22;7062;49.792;9.946;2023-05-16T09:29:56;15.30;99.90
13976;DHT22;7062;49.792;9.946;2023-05-16T09:32:23;15.20;99.90
13976;DHT22;7062;49.792;9.946;2023-05-16T09:34:49;15.20;99.90
13976;DHT22;7062;49.792;9.946;2023-05-16T09:37:16;15.20;99.90
13976;DHT22;7062;49.792;9.946;2023-05-16T09:39:50;15.20;99.90
13976;DHT22;7062;49.792;9.946;2023-05-16T09:42:17;15.10;99.90
13976;DHT22;7062;49.792;9.946;2023-05-16T09:44:48;15.20;99.90
13976;DHT22;7062;49.792;9.946;2023-05-16T09:47:15;15.30;99.90
13976;DHT22;7062;49.792;9.946;2023-05-16T09:49:43;15.30;99.90
13976;DHT22;7062;49.792;9.946;2023-05-16T09:52:09;15.40;99.90
13976;DHT22;7062;49.792;9.946;2023-05-16T09:54:34;15.50;99.90
13976;DHT22;7062;49.792;9.946;2023-05-16T09:57:01;15.40;99.90
13976;DHT22;7062;49.792;9.946;2023-05-16T09:59:30;15.50;99.90
13976;DHT22;7062;49.792;9.946;2023-05-16T10:01:59;15.50;99.90
13976;DHT22;7062;49.792;9.946;2023-05-16T10:04:25;15.60;99.90
13976;DHT22;7062;49.792;9.946;2023-05-16T10:06:54;15.60;99.90
13976;DHT22;7062;49.792;9.946;2023-05-16T10:09:21;15.40;99.90
13976;DHT22;7062;49.792;9.946;2023-05-16T10:11:47;15.30;99.90
13976;DHT22;7062;49.792;9.946;2023-05-16T10:14:16;15.10;99.90
13976;DHT22;7062;49.792;9.946;2023-05-16T10:16:43;14.90;99.90
13976;DHT22;7062;49.792;9.946;2023-05-16T10:19:11;14.90;99.90
13976;DHT22;7062;49.792;9.946;2023-05-16T10:21:38;14.90;99.90
13976;DHT22;7062;49.792;9.946;2023-05-16T10:24:06;14.90;99.90
13976;DHT22;7062;49.792;9.946;2023-05-16T10:26:35;15.00;99.90
13976;DHT22;7062;49.792;9.946;2023-05-16T10:29:02;15.10;99.90
13976;DHT22;7062;49.792;9.946;2023-05-16T10:31:28;15.20;99.90
13976;DHT22;7062;49.792;9.946;2023-05-16T10:33:56;15.10;99.90
13976;DHT22;7062;49.792;9.946;2023-05-16T10:36:22;15.10;99.90
13976;DHT22;7062;49.792;9.946;2023-05-16T10:38:49;15.10;99.90
13976;DHT22;7062;49.792;9.946;2023-05-16T10:41:16;15.10;99.90
13976;DHT22;7062;49.792;9.946;2023-05-16T10:43:44;15.00;99.90
13976;DHT22;7062;49.792;9.946;2023-05-16T10:46:22;14.80;99.90
13976;DHT22;7062;49.792;9.946;2023-05-16T10:48:47;14.60;99.90
13976;DHT22;7062;49.792;9.946;2023-05-16T10:51:36;14.60;99.90
13976;DHT22;7062;49.792;9.946;2023-05-16T10:54:10;14.80;99.90
13976;DHT22;7062;49.792;9.946;2023-05-16T10:56:37;14.60;99.90
13976;DHT22;7062;49.792;9.946;2023-05-16T10:59:03;14.50;99.90
13976;DHT22;7062;49.792;9.946;2023-05-16T11:01:31;14.60;99.90
13976;DHT22;7062;49.792;9.946;2023-05-16T11:22:32;14.70;99.90
13976;DHT22;7062;49.792;9.946;2023-05-16T11:25:03;14.70;99.90
13976;DHT22;7062;49.792;9.946;2023-05-16T11:27:45;14.70;99.90
13976;DHT22;7062;49.792;9.946;2023-05-16T11:30:16;14.80;99.90
13976;DHT22;7062;49.792;9.946;2023-05-16T11:32:44;14.80;99.90
13976;DHT22;7062;49.792;9.946;2023-05-16T11:35:12;14.60;99.90
13976;DHT22;7062;49.792;9.946;2023-05-16T11:37:39;14.60;99.90
13976;DHT22;7062;49.792;9.946;2023-05-16T11:40:06;14.60;99.90
13976;DHT22;7062;49.792;9.946;2023-05-16T11:45:10;14.80;99.90
13976;DHT22;7062;49.792;9.946;2023-05-16T11:47:38;14.80;99.90
13976;DHT22;7062;49.792;9.946;2023-05-16T11:50:12;14.80;99.90
13976;DHT22;7062;49.792;9.946;2023-05-16T11:52:38;14.90;99.90
13976;DHT22;7062;49.792;9.946;2023-05-16T11:55:05;14.80;99.90
13976;DHT22;7062;49.792;9.946;2023-05-16T11:57:32;14.80;99.90
13976;DHT22;7062;49.792;9.946;2023-05-16T12:02:38;14.80;99.90
13976;DHT22;7062;49.792;9.946;2023-05-16T12:05:08;14.90;99.90
13976;DHT22;7062;49.792;9.946;2023-05-16T12:07:37;14.80;99.90
13976;DHT22;7062;49.792;9.946;2023-05-16T12:10:06;14.80;99.90
13976;DHT22;7062;49.792;9.946;2023-05-16T12:12:33;15.00;99.90
13976;DHT22;7062;49.792;9.946;2023-05-16T12:15:00;15.20;99.90
13976;DHT22;7062;49.792;9.946;2023-05-16T12:17:26;15.30;99.90
13976;DHT22;7062;49.792;9.946;2023-05-16T12:19:52;15.40;99.90
13976;DHT22;7062;49.792;9.946;2023-05-16T12:22:19;15.70;99.90
13976;DHT22;7062;49.792;9.946;2023-05-16T12:24:45;15.90;99.90
13976;DHT22;7062;49.792;9.946;2023-05-16T12:27:10;16.00;99.90
13976;DHT22;7062;49.792;9.946;2023-05-16T12:29:37;15.90;99.90
13976;DHT22;7062;49.792;9.946;2023-05-16T12:32:02;15.60;99.90
13976;DHT22;7062;49.792;9.946;2023-05-16T12:34:29;15.40;99.90
13976;DHT22;7062;49.792;9.946;2023-05-16T12:36:55;15.50;99.90
13976;DHT22;7062;49.792;9.946;2023-05-16T12:39:21;15.40;99.90
13976;DHT22;7062;49.792;9.946;2023-05-16T12:41:49;15.30;99.90
13976;DHT22;7062;49.792;9.946;2023-05-16T12:44:17;15.30;99.90
13976;DHT22;7062;49.792;9.946;2023-05-16T12:46:49;15.40;99.90
13976;DHT22;7062;49.792;9.946;2023-05-16T12:49:18;15.60;99.90
13976;DHT22;7062;49.792;9.946;2023-05-16T12:51:49;15.80;99.90
13976;DHT22;7062;49.792;9.946;2023-05-16T12:54:15;16.10;99.90
13976;DHT22;7062;49.792;9.946;2023-05-16T12:56:41;16.30;99.90
13976;DHT22;7062;49.792;9.946;2023-05-16T12:59:07;16.50;99.90
13976;DHT22;7062;49.792;9.946;2023-05-16T13:01:34;16.40;99.90
13976;DHT22;7062;49.792;9.946;2023-05-16T13:04:00;16.50;99.90
13976;DHT22;7062;49.792;9.946;2023-05-16T13:06:26;17.20;99.90
13976;DHT22;7062;49.792;9.946;2023-05-16T13:08:52;16.40;99.90
13976;DHT22;7062;49.792;9.946;2023-05-16T13:11:18;16.40;99.90
13976;DHT22;7062;49.792;9.946;2023-05-16T13:13:44;16.30;99.90
13976;DHT22;7062;49.792;9.946;2023-05-16T13:16:09;16.20;99.90
13976;DHT22;7062;49.792;9.946;2023-05-16T13:18:35;16.10;99.90
13976;DHT22;7062;49.792;9.946;2023-05-16T13:21:01;15.80;99.90
13976;DHT22;7062;49.792;9.946;2023-05-16T13:23:29;15.80;99.90
13976;DHT22;7062;49.792;9.946;2023-05-16T13:25:54;15.70;99.90
13976;DHT22;7062;49.792;9.946;2023-05-16T13:28:20;15.60;99.90
13976;DHT22;7062;49.792;9.946;2023-05-16T13:30:46;15.60;99.90
13976;DHT22;7062;49.792;9.946;2023-05-16T13:33:12;15.50;99.90
13976;DHT22;7062;49.792;9.946;2023-05-16T13:35:37;15.60;99.90
13976;DHT22;7062;49.792;9.946;2023-05-16T13:38:03;15.70;99.90
13976;DHT22;7062;49.792;9.946;2023-05-16T13:40:29;15.60;99.90
13976;DHT22;7062;49.792;9.946;2023-05-16T13:42:55;15.70;99.90
13976;DHT22;7062;49.792;9.946;2023-05-16T13:45:21;15.80;99.90
13976;DHT22;7062;49.792;9.946;2023-05-16T13:47:47;15.80;99.90
13976;DHT22;7062;49.792;9.946;2023-05-16T13:50:12;16.00;99.90
13976;DHT22;7062;49.792;9.946;2023-05-16T13:52:38;16.00;99.90
13976;DHT22;7062;49.792;9.946;2023-05-16T13:55:05;16.20;99.90
13976;DHT22;7062;49.792;9.946;2023-05-16T13:57:31;16.50;99.90
13976;DHT22;7062;49.792;9.946;2023-05-16T13:59:58;16.60;99.90
13976;DHT22;7062;49.792;9.946;2023-05-16T14:02:24;16.50;99.90
13976;DHT22;7062;49.792;9.946;2023-05-16T14:04:51;16.40;99.90
13976;DHT22;7062;49.792;9.946;2023-05-16T14:07:17;16.40;99.90
13976;DHT22;7062;49.792;9.946;2023-05-16T14:09:42;16.30;99.90
13976;DHT22;7062;49.792;9.946;2023-05-16T14:12:09;16.30;99.90
13976;DHT22;7062;49.792;9.946;2023-05-16T14:14:35;16.30;99.90
13976;DHT22;7062;49.792;9.946;2023-05-16T14:17:02;16.70;99.90
13976;DHT22;7062;49.792;9.946;2023-05-16T14:19:29;16.10;99.90
13976;DHT22;7062;49.792;9.946;2023-05-16T14:21:55;16.20;99.90
13976;DHT22;7062;49.792;9.946;2023-05-16T14:24:21;16.00;99.90
13976;DHT22;7062;49.792;9.946;2023-05-16T14:26:46;16.00;99.90
13976;DHT22;7062;49.792;9.946;2023-05-16T14:29:12;16.00;99.90
13976;DHT22;7062;49.792;9.946;2023-05-16T14:31:38;16.10;99.90
13976;DHT22;7062;49.792;9.946;2023-05-16T14:34:05;16.10;99.90
13976;DHT22;7062;49.792;9.946;2023-05-16T14:36:30;16.00;99.90
13976;DHT22;7062;49.792;9.946;2023-05-16T14:38:57;16.20;99.90
13976;DHT22;7062;49.792;9.946;2023-05-16T14:41:22;16.30;99.90
13976;DHT22;7062;49.792;9.946;2023-05-16T14:43:48;16.40;99.90
13976;DHT22;7062;49.792;9.946;2023-05-16T14:46:14;16.30;99.90
13976;DHT22;7062;49.792;9.946;2023-05-16T14:48:39;16.30;99.90
13976;DHT22;7062;49.792;9.946;2023-05-16T14:51:05;16.10;99.90
13976;DHT22;7062;49.792;9.946;2023-05-16T14:53:31;16.20;99.90
13976;DHT22;7062;49.792;9.946;2023-05-16T14:55:57;16.30;99.90
13976;DHT22;7062;49.792;9.946;2023-05-16T14:58:23;16.40;99.90
13976;DHT22;7062;49.792;9.946;2023-05-16T15:00:49;16.40;99.90
13976;DHT22;7062;49.792;9.946;2023-05-16T15:03:15;16.30;99.90
13976;DHT22;7062;49.792;9.946;2023-05-16T15:05:41;16.10;99.90
13976;DHT22;7062;49.792;9.946;2023-05-16T15:08:07;16.10;99.90
13976;DHT22;7062;49.792;9.946;2023-05-16T15:10:32;16.20;99.90
13976;DHT22;7062;49.792;9.946;2023-05-16T15:12:58;16.30;99.90
13976;DHT22;7062;49.792;9.946;2023-05-16T15:15:24;16.30;99.90
13976;DHT22;7062;49.792;9.946;2023-05-16T15:17:49;16.50;99.90
13976;DHT22;7062;49.792;9.946;2023-05-16T15:20:15;16.60;99.90
13976;DHT22;7062;49.792;9.946;2023-05-16T15:22:41;16.60;99.90
13976;DHT22;7062;49.792;9.946;2023-05-16T15:25:07;16.60;99.90
13976;DHT22;7062;49.792;9.946;2023-05-16T15:27:33;16.50;99.90
13976;DHT22;7062;49.792;9.946;2023-05-16T15:29:59;16.50;99.90
13976;DHT22;7062;49.792;9.946;2023-05-16T15:32:25;16.50;99.90
13976;DHT22;7062;49.792;9.946;2023-05-16T15:34:51;16.80;99.90
13976;DHT22;7062;49.792;9.946;2023-05-16T15:37:17;17.80;99.60
13976;DHT22;7062;49.792;9.946;2023-05-16T15:39:43;20.00;97.20
13976;DHT22;7062;49.792;9.946;2023-05-16T15:42:09;21.90;93.90
13976;DHT22;7062;49.792;9.946;2023-05-16T15:44:35;24.00;90.60
13976;DHT22;7062;49.792;9.946;2023-05-16T15:47:01;25.70;80.90
13976;DHT22;7062;49.792;9.946;2023-05-16T15:49:26;26.30;78.20
13976;DHT22;7062;49.792;9.946;2023-05-16T15:51:53;26.10;72.20
13976;DHT22;7062;49.792;9.946;2023-05-16T15:54:19;26.10;72.00
13976;DHT22;7062;49.792;9.946;2023-05-16T15:56:45;27.80;69.00
13976;DHT22;7062;49.792;9.946;2023-05-16T15:59:11;28.20;66.30
13976;DHT22;7062;49.792;9.946;2023-05-16T16:01:36;26.70;65.60
13976;DHT22;7062;49.792;9.946;2023-05-16T16:04:02;25.70;67.30
13976;DHT22;7062;49.792;9.946;2023-05-16T16:06:28;25.50;67.70
13976;DHT22;7062;49.792;9.946;2023-05-16T16:08:53;26.90;65.80
13976;DHT22;7062;49.792;9.946;2023-05-16T16:11:19;28.40;63.60
13976;DHT22;7062;49.792;9.946;2023-05-16T16:13:49;28.80;61.80
13976;DHT22;7062;49.792;9.946;2023-05-16T16:16:15;28.80;62.40
13976;DHT22;7062;49.792;9.946;2023-05-16T16:18:41;27.60;60.10